sensor_id;sensor_type;location;lat;lon;timestamp;P1;durP1;ratioP1;P2;durP2;ratioP2
1545;SDS011;766;51.502;9.752;2022-08-01T00:00:08;5.80;;;4.10;;
1545;SDS011;766;51.502;9.752;2022-08-01T00:02:37;4.50;;;4.10;;
1545;SDS011;766;51.502;9.752;2022-08-01T00:05:06;6.00;;;3.90;;
1545;SDS011;766;51.502;9.752;2022-08-01T00:07:36;5.13;;;4.47;;
1545;SDS011;766;51.502;9.752;2022-08-01T00:10:07;6.43;;;4.53;;
1545;SDS011;766;51.502;9.752;2022-08-01T00:12:39;10.20;;;4.78;;
1545;SDS011;766;51.502;9.752;2022-08-01T00:15:08;6.78;;;4.10;;
1545;SDS011;766;51.502;9.752;2022-08-01T00:17:38;4.70;;;4.10;;
1545;SDS011;766;51.502;9.752;2022-08-01T00:20:08;7.38;;;4.50;;
1545;SDS011;766;51.502;9.752;2022-08-01T00:22:41;4.78;;;3.83;;
1545;SDS011;766;51.502;9.752;2022-08-01T00:25:11;5.47;;;4.50;;
1545;SDS011;766;51.502;9.752;2022-08-01T00:27:40;7.45;;;4.75;;
1545;SDS011;766;51.502;9.752;2022-08-01T00:30:09;6.70;;;4.72;;
1545;SDS011;766;51.502;9.752;2022-08-01T00:32:41;6.75;;;4.03;;
1545;SDS011;766;51.502;9.752;2022-08-01T00:35:10;4.90;;;3.95;;
1545;SDS011;766;51.502;9.752;2022-08-01T00:37:39;7.13;;;4.82;;
1545;SDS011;766;51.502;9.752;2022-08-01T00:40:08;5.13;;;4.47;;
1545;SDS011;766;51.502;9.752;2022-08-01T00:42:38;6.68;;;4.93;;
1545;SDS011;766;51.502;9.752;2022-08-01T00:45:09;5.95;;;4.38;;
1545;SDS011;766;51.502;9.752;2022-08-01T00:47:38;7.75;;;6.15;;
1545;SDS011;766;51.502;9.752;2022-08-01T00:50:07;5.82;;;4.60;;
1545;SDS011;766;51.502;9.752;2022-08-01T00:52:38;7.95;;;4.53;;
1545;SDS011;766;51.502;9.752;2022-08-01T00:55:07;6.38;;;4.38;;
1545;SDS011;766;51.502;9.752;2022-08-01T00:57:42;5.05;;;3.90;;
1545;SDS011;766;51.502;9.752;2022-08-01T01:00:30;3.97;;;3.63;;
1545;SDS011;766;51.502;9.752;2022-08-01T01:03:22;8.18;;;4.35;;
1545;SDS011;766;51.502;9.752;2022-08-01T01:09:10;4.55;;;3.45;;
1545;SDS011;766;51.502;9.752;2022-08-01T01:11:47;4.30;;;2.78;;
1545;SDS011;766;51.502;9.752;2022-08-01T01:14:29;5.15;;;3.85;;
1545;SDS011;766;51.502;9.752;2022-08-01T01:17:02;8.85;;;3.33;;
1545;SDS011;766;51.502;9.752;2022-08-01T01:19:32;3.97;;;3.55;;
1545;SDS011;766;51.502;9.752;2022-08-01T01:22:17;8.32;;;4.13;;
1545;SDS011;766;51.502;9.752;2022-08-01T01:24:56;5.07;;;4.10;;
1545;SDS011;766;51.502;9.752;2022-08-01T01:27:36;4.70;;;4.20;;
1545;SDS011;766;51.502;9.752;2022-08-01T01:30:16;5.75;;;4.00;;
1545;SDS011;766;51.502;9.752;2022-08-01T01:32:47;6.88;;;4.60;;
1545;SDS011;766;51.502;9.752;2022-08-01T01:35:22;5.88;;;4.25;;
1545;SDS011;766;51.502;9.752;2022-08-01T01:37:56;10.15;;;5.28;;
1545;SDS011;766;51.502;9.752;2022-08-01T01:40:28;7.90;;;4.80;;
1545;SDS011;766;51.502;9.752;2022-08-01T01:42:58;8.30;;;5.20;;
1545;SDS011;766;51.502;9.752;2022-08-01T01:45:29;6.13;;;4.85;;
1545;SDS011;766;51.502;9.752;2022-08-01T01:47:58;6.65;;;4.72;;
1545;SDS011;766;51.502;9.752;2022-08-01T01:50:28;5.78;;;4.72;;
1545;SDS011;766;51.502;9.752;2022-08-01T01:52:58;6.32;;;5.32;;
1545;SDS011;766;51.502;9.752;2022-08-01T01:55:28;6.18;;;5.00;;
1545;SDS011;766;51.502;9.752;2022-08-01T01:58:14;8.55;;;5.65;;
1545;SDS011;766;51.502;9.752;2022-08-01T02:00:47;6.57;;;5.82;;
1545;SDS011;766;51.502;9.752;2022-08-01T02:03:18;6.20;;;5.03;;
1545;SDS011;766;51.502;9.752;2022-08-01T02:05:48;8.32;;;5.75;;
1545;SDS011;766;51.502;9.752;2022-08-01T02:08:19;10.55;;;5.50;;
1545;SDS011;766;51.502;9.752;2022-08-01T02:10:50;10.45;;;5.68;;
1545;SDS011;766;51.502;9.752;2022-08-01T02:13:34;10.60;;;6.22;;
1545;SDS011;766;51.502;9.752;2022-08-01T02:16:07;7.53;;;6.07;;
1545;SDS011;766;51.502;9.752;2022-08-01T02:18:38;8.15;;;6.82;;
1545;SDS011;766;51.502;9.752;2022-08-01T02:21:09;8.35;;;6.53;;
1545;SDS011;766;51.502;9.752;2022-08-01T02:23:41;8.63;;;6.15;;
1545;SDS011;766;51.502;9.752;2022-08-01T02:26:13;8.05;;;6.47;;
1545;SDS011;766;51.502;9.752;2022-08-01T02:28:43;10.57;;;7.32;;
1545;SDS011;766;51.502;9.752;2022-08-01T02:31:19;9.25;;;7.57;;
1545;SDS011;766;51.502;9.752;2022-08-01T02:33:53;12.73;;;8.05;;
1545;SDS011;766;51.502;9.752;2022-08-01T02:36:25;10.93;;;7.53;;
1545;SDS011;766;51.502;9.752;2022-08-01T02:38:59;11.27;;;7.63;;
1545;SDS011;766;51.502;9.752;2022-08-01T02:41:30;12.45;;;7.78;;
1545;SDS011;766;51.502;9.752;2022-08-01T02:44:03;12.45;;;9.20;;
1545;SDS011;766;51.502;9.752;2022-08-01T02:46:37;10.35;;;8.00;;
1545;SDS011;766;51.502;9.752;2022-08-01T02:49:08;14.00;;;7.68;;
1545;SDS011;766;51.502;9.752;2022-08-01T02:51:39;9.85;;;7.90;;
1545;SDS011;766;51.502;9.752;2022-08-01T02:54:09;11.95;;;8.10;;
1545;SDS011;766;51.502;9.752;2022-08-01T02:56:38;11.70;;;7.50;;
1545;SDS011;766;51.502;9.752;2022-08-01T02:59:10;9.80;;;7.28;;
1545;SDS011;766;51.502;9.752;2022-08-01T03:01:49;11.00;;;7.15;;
1545;SDS011;766;51.502;9.752;2022-08-01T03:04:21;10.57;;;7.47;;
1545;SDS011;766;51.502;9.752;2022-08-01T03:06:51;13.55;;;8.30;;
1545;SDS011;766;51.502;9.752;2022-08-01T03:09:25;10.75;;;8.38;;
1545;SDS011;766;51.502;9.752;2022-08-01T03:11:55;9.93;;;8.18;;
1545;SDS011;766;51.502;9.752;2022-08-01T03:14:25;12.05;;;8.20;;
1545;SDS011;766;51.502;9.752;2022-08-01T03:16:56;9.40;;;8.38;;
1545;SDS011;766;51.502;9.752;2022-08-01T03:19:26;12.32;;;8.82;;
1545;SDS011;766;51.502;9.752;2022-08-01T03:21:57;11.27;;;8.00;;
1545;SDS011;766;51.502;9.752;2022-08-01T03:24:30;11.65;;;9.20;;
1545;SDS011;766;51.502;9.752;2022-08-01T03:26:59;10.68;;;7.72;;
1545;SDS011;766;51.502;9.752;2022-08-01T03:29:30;13.13;;;9.52;;
1545;SDS011;766;51.502;9.752;2022-08-01T03:32:01;10.48;;;7.10;;
1545;SDS011;766;51.502;9.752;2022-08-01T03:34:31;9.43;;;7.18;;
1545;SDS011;766;51.502;9.752;2022-08-01T03:37:03;11.82;;;7.38;;
1545;SDS011;766;51.502;9.752;2022-08-01T03:39:37;8.23;;;7.38;;
1545;SDS011;766;51.502;9.752;2022-08-01T03:42:12;12.68;;;7.03;;
1545;SDS011;766;51.502;9.752;2022-08-01T03:44:52;9.32;;;5.95;;
1545;SDS011;766;51.502;9.752;2022-08-01T03:47:24;8.35;;;5.72;;
1545;SDS011;766;51.502;9.752;2022-08-01T03:49:57;5.28;;;4.75;;
1545;SDS011;766;51.502;9.752;2022-08-01T03:52:27;7.57;;;4.60;;
1545;SDS011;766;51.502;9.752;2022-08-01T03:54:58;6.15;;;4.60;;
1545;SDS011;766;51.502;9.752;2022-08-01T03:57:34;5.03;;;4.53;;
1545;SDS011;766;51.502;9.752;2022-08-01T04:00:04;4.90;;;4.38;;
1545;SDS011;766;51.502;9.752;2022-08-01T04:02:36;3.80;;;3.20;;
1545;SDS011;766;51.502;9.752;2022-08-01T04:05:06;5.97;;;3.97;;
1545;SDS011;766;51.502;9.752;2022-08-01T04:07:35;4.68;;;3.40;;
1545;SDS011;766;51.502;9.752;2022-08-01T04:10:06;5.05;;;3.53;;
1545;SDS011;766;51.502;9.752;2022-08-01T04:12:34;5.22;;;3.65;;
1545;SDS011;766;51.502;9.752;2022-08-01T04:15:03;3.67;;;3.38;;
1545;SDS011;766;51.502;9.752;2022-08-01T04:17:33;3.67;;;3.35;;
1545;SDS011;766;51.502;9.752;2022-08-01T04:20:03;3.40;;;3.10;;
1545;SDS011;766;51.502;9.752;2022-08-01T04:22:31;4.97;;;3.40;;
1545;SDS011;766;51.502;9.752;2022-08-01T04:25:04;3.90;;;3.50;;
1545;SDS011;766;51.502;9.752;2022-08-01T04:27:37;4.47;;;3.33;;
1545;SDS011;766;51.502;9.752;2022-08-01T04:30:17;5.32;;;3.83;;
1545;SDS011;766;51.502;9.752;2022-08-01T04:32:48;5.85;;;4.25;;
1545;SDS011;766;51.502;9.752;2022-08-01T04:35:19;4.57;;;3.70;;
1545;SDS011;766;51.502;9.752;2022-08-01T04:38:09;4.85;;;3.67;;
1545;SDS011;766;51.502;9.752;2022-08-01T04:40:40;4.80;;;4.32;;
1545;SDS011;766;51.502;9.752;2022-08-01T04:43:09;4.82;;;4.28;;
1545;SDS011;766;51.502;9.752;2022-08-01T04:45:40;8.68;;;4.18;;
1545;SDS011;766;51.502;9.752;2022-08-01T04:48:10;5.60;;;4.57;;
1545;SDS011;766;51.502;9.752;2022-08-01T04:50:42;7.50;;;4.47;;
1545;SDS011;766;51.502;9.752;2022-08-01T04:53:12;5.65;;;4.38;;
1545;SDS011;766;51.502;9.752;2022-08-01T04:55:43;6.65;;;4.15;;
1545;SDS011;766;51.502;9.752;2022-08-01T04:58:12;5.07;;;4.13;;
1545;SDS011;766;51.502;9.752;2022-08-01T05:00:44;5.25;;;3.92;;
1545;SDS011;766;51.502;9.752;2022-08-01T05:03:13;4.50;;;4.10;;
1545;SDS011;766;51.502;9.752;2022-08-01T05:05:43;4.30;;;3.90;;
1545;SDS011;766;51.502;9.752;2022-08-01T05:08:11;5.95;;;3.83;;
1545;SDS011;766;51.502;9.752;2022-08-01T05:10:39;6.15;;;4.10;;
1545;SDS011;766;51.502;9.752;2022-08-01T05:13:08;4.82;;;3.88;;
1545;SDS011;766;51.502;9.752;2022-08-01T05:15:37;5.32;;;4.35;;
1545;SDS011;766;51.502;9.752;2022-08-01T05:18:06;5.05;;;3.90;;
1545;SDS011;766;51.502;9.752;2022-08-01T05:20:35;7.32;;;4.43;;
1545;SDS011;766;51.502;9.752;2022-08-01T05:23:05;6.03;;;3.90;;
1545;SDS011;766;51.502;9.752;2022-08-01T05:25:36;8.40;;;4.13;;
1545;SDS011;766;51.502;9.752;2022-08-01T05:28:22;7.53;;;3.53;;
1545;SDS011;766;51.502;9.752;2022-08-01T05:30:51;5.95;;;3.80;;
1545;SDS011;766;51.502;9.752;2022-08-01T05:33:21;5.43;;;3.90;;
1545;SDS011;766;51.502;9.752;2022-08-01T05:35:49;6.18;;;4.40;;
1545;SDS011;766;51.502;9.752;2022-08-01T05:38:19;7.72;;;4.13;;
1545;SDS011;766;51.502;9.752;2022-08-01T05:40:47;5.53;;;3.90;;
1545;SDS011;766;51.502;9.752;2022-08-01T05:43:16;4.10;;;3.45;;
1545;SDS011;766;51.502;9.752;2022-08-01T05:45:44;5.50;;;3.70;;
1545;SDS011;766;51.502;9.752;2022-08-01T05:48:16;4.00;;;3.60;;
1545;SDS011;766;51.502;9.752;2022-08-01T05:50:44;5.30;;;4.05;;
1545;SDS011;766;51.502;9.752;2022-08-01T05:53:15;5.13;;;4.00;;
1545;SDS011;766;51.502;9.752;2022-08-01T05:55:44;4.72;;;3.60;;
1545;SDS011;766;51.502;9.752;2022-08-01T05:58:13;4.53;;;3.28;;
1545;SDS011;766;51.502;9.752;2022-08-01T06:00:42;5.22;;;3.47;;
1545;SDS011;766;51.502;9.752;2022-08-01T06:03:10;5.57;;;3.60;;
1545;SDS011;766;51.502;9.752;2022-08-01T06:05:38;3.40;;;3.10;;
1545;SDS011;766;51.502;9.752;2022-08-01T06:08:06;5.15;;;3.33;;
1545;SDS011;766;51.502;9.752;2022-08-01T06:10:35;3.55;;;3.25;;
1545;SDS011;766;51.502;9.752;2022-08-01T06:13:05;3.85;;;3.50;;
1545;SDS011;766;51.502;9.752;2022-08-01T06:15:33;5.40;;;3.22;;
1545;SDS011;766;51.502;9.752;2022-08-01T06:18:02;4.97;;;2.97;;
1545;SDS011;766;51.502;9.752;2022-08-01T06:20:31;6.07;;;2.72;;
1545;SDS011;766;51.502;9.752;2022-08-01T06:22:59;2.95;;;2.38;;
1545;SDS011;766;51.502;9.752;2022-08-01T06:25:48;3.70;;;2.78;;
1545;SDS011;766;51.502;9.752;2022-08-01T06:28:21;5.05;;;3.00;;
1545;SDS011;766;51.502;9.752;2022-08-01T06:30:52;4.15;;;2.95;;
1545;SDS011;766;51.502;9.752;2022-08-01T06:33:21;5.20;;;2.78;;
1545;SDS011;766;51.502;9.752;2022-08-01T06:35:49;3.70;;;2.80;;
1545;SDS011;766;51.502;9.752;2022-08-01T06:38:18;6.80;;;2.72;;
1545;SDS011;766;51.502;9.752;2022-08-01T06:40:49;3.40;;;2.67;;
1545;SDS011;766;51.502;9.752;2022-08-01T06:43:17;5.85;;;2.75;;
1545;SDS011;766;51.502;9.752;2022-08-01T06:45:47;4.38;;;2.25;;
1545;SDS011;766;51.502;9.752;2022-08-01T06:48:16;5.40;;;2.47;;
1545;SDS011;766;51.502;9.752;2022-08-01T06:50:44;3.10;;;2.55;;
1545;SDS011;766;51.502;9.752;2022-08-01T06:53:13;3.03;;;2.13;;
1545;SDS011;766;51.502;9.752;2022-08-01T06:55:41;2.85;;;2.03;;
1545;SDS011;766;51.502;9.752;2022-08-01T06:58:09;3.38;;;2.17;;
1545;SDS011;766;51.502;9.752;2022-08-01T07:00:38;2.88;;;2.17;;
1545;SDS011;766;51.502;9.752;2022-08-01T07:03:10;2.90;;;2.17;;
1545;SDS011;766;51.502;9.752;2022-08-01T07:05:38;2.10;;;1.90;;
1545;SDS011;766;51.502;9.752;2022-08-01T07:08:06;3.15;;;2.20;;
1545;SDS011;766;51.502;9.752;2022-08-01T07:10:35;2.10;;;1.90;;
1545;SDS011;766;51.502;9.752;2022-08-01T07:13:03;3.20;;;1.92;;
1545;SDS011;766;51.502;9.752;2022-08-01T07:15:31;5.50;;;2.08;;
1545;SDS011;766;51.502;9.752;2022-08-01T07:18:00;6.43;;;1.90;;
1545;SDS011;766;51.502;9.752;2022-08-01T07:20:32;3.38;;;1.88;;
1545;SDS011;766;51.502;9.752;2022-08-01T07:23:18;2.10;;;1.90;;
1545;SDS011;766;51.502;9.752;2022-08-01T07:25:48;2.05;;;1.83;;
1545;SDS011;766;51.502;9.752;2022-08-01T07:28:23;6.55;;;2.22;;
1545;SDS011;766;51.502;9.752;2022-08-01T07:30:55;3.40;;;1.88;;
1545;SDS011;766;51.502;9.752;2022-08-01T07:33:23;3.10;;;1.80;;
1545;SDS011;766;51.502;9.752;2022-08-01T07:36:13;2.45;;;2.00;;
1545;SDS011;766;51.502;9.752;2022-08-01T07:38:42;1.98;;;1.80;;
1545;SDS011;766;51.502;9.752;2022-08-01T07:41:11;1.92;;;1.70;;
1545;SDS011;766;51.502;9.752;2022-08-01T07:43:40;2.10;;;1.90;;
1545;SDS011;766;51.502;9.752;2022-08-01T07:46:21;2.95;;;1.80;;
1545;SDS011;766;51.502;9.752;2022-08-01T07:48:50;3.75;;;1.98;;
1545;SDS011;766;51.502;9.752;2022-08-01T07:51:20;1.83;;;1.73;;
1545;SDS011;766;51.502;9.752;2022-08-01T07:53:48;3.35;;;1.98;;
1545;SDS011;766;51.502;9.752;2022-08-01T07:56:17;2.63;;;1.90;;
1545;SDS011;766;51.502;9.752;2022-08-01T07:58:45;2.55;;;1.60;;
1545;SDS011;766;51.502;9.752;2022-08-01T08:01:14;5.05;;;1.58;;
1545;SDS011;766;51.502;9.752;2022-08-01T08:03:44;1.60;;;1.50;;
1545;SDS011;766;51.502;9.752;2022-08-01T08:06:12;1.90;;;1.40;;
1545;SDS011;766;51.502;9.752;2022-08-01T08:08:42;2.35;;;1.70;;
1545;SDS011;766;51.502;9.752;2022-08-01T08:11:11;3.42;;;1.25;;
1545;SDS011;766;51.502;9.752;2022-08-01T08:13:39;1.70;;;1.60;;
1545;SDS011;766;51.502;9.752;2022-08-01T08:16:08;2.28;;;1.80;;
1545;SDS011;766;51.502;9.752;2022-08-01T08:18:36;2.60;;;2.17;;
1545;SDS011;766;51.502;9.752;2022-08-01T08:21:04;2.58;;;2.13;;
1545;SDS011;766;51.502;9.752;2022-08-01T08:23:32;2.40;;;1.90;;
1545;SDS011;766;51.502;9.752;2022-08-01T08:26:19;2.83;;;1.88;;
1545;SDS011;766;51.502;9.752;2022-08-01T08:28:49;3.63;;;2.03;;
1545;SDS011;766;51.502;9.752;2022-08-01T08:31:18;2.92;;;2.13;;
1545;SDS011;766;51.502;9.752;2022-08-01T08:34:06;2.13;;;1.92;;
1545;SDS011;766;51.502;9.752;2022-08-01T08:36:35;2.28;;;2.08;;
1545;SDS011;766;51.502;9.752;2022-08-01T08:39:03;5.80;;;2.35;;
1545;SDS011;766;51.502;9.752;2022-08-01T08:41:34;2.90;;;1.95;;
1545;SDS011;766;51.502;9.752;2022-08-01T08:44:04;2.55;;;1.88;;
1545;SDS011;766;51.502;9.752;2022-08-01T08:46:38;4.85;;;1.60;;
1545;SDS011;766;51.502;9.752;2022-08-01T08:49:10;3.67;;;1.70;;
1545;SDS011;766;51.502;9.752;2022-08-01T08:51:41;2.75;;;1.88;;
1545;SDS011;766;51.502;9.752;2022-08-01T08:54:10;3.70;;;1.83;;
1545;SDS011;766;51.502;9.752;2022-08-01T08:56:42;2.67;;;2.13;;
1545;SDS011;766;51.502;9.752;2022-08-01T08:59:12;2.22;;;1.75;;
1545;SDS011;766;51.502;9.752;2022-08-01T09:01:42;1.73;;;1.50;;
1545;SDS011;766;51.502;9.752;2022-08-01T09:04:11;2.03;;;1.90;;
1545;SDS011;766;51.502;9.752;2022-08-01T09:06:40;3.35;;;1.70;;
1545;SDS011;766;51.502;9.752;2022-08-01T09:09:09;4.03;;;1.80;;
1545;SDS011;766;51.502;9.752;2022-08-01T09:11:37;2.25;;;1.58;;
1545;SDS011;766;51.502;9.752;2022-08-01T09:14:08;2.22;;;1.13;;
1545;SDS011;766;51.502;9.752;2022-08-01T09:16:42;2.67;;;1.00;;
1545;SDS011;766;51.502;9.752;2022-08-01T09:19:15;1.30;;;1.10;;
1545;SDS011;766;51.502;9.752;2022-08-01T09:22:07;0.82;;;0.80;;
1545;SDS011;766;51.502;9.752;2022-08-01T09:24:37;1.05;;;0.80;;
1545;SDS011;766;51.502;9.752;2022-08-01T09:27:15;0.60;;;0.60;;
1545;SDS011;766;51.502;9.752;2022-08-01T09:29:49;1.13;;;0.77;;
1545;SDS011;766;51.502;9.752;2022-08-01T09:32:27;0.90;;;0.70;;
1545;SDS011;766;51.502;9.752;2022-08-01T09:38:10;1.20;;;0.57;;
1545;SDS011;766;51.502;9.752;2022-08-01T09:40:48;0.82;;;0.65;;
1545;SDS011;766;51.502;9.752;2022-08-01T09:43:19;0.57;;;0.50;;
1545;SDS011;766;51.502;9.752;2022-08-01T09:45:50;0.75;;;0.60;;
1545;SDS011;766;51.502;9.752;2022-08-01T09:48:20;0.70;;;0.60;;
1545;SDS011;766;51.502;9.752;2022-08-01T09:50:55;3.10;;;0.50;;
1545;SDS011;766;51.502;9.752;2022-08-01T09:53:41;2.72;;;0.70;;
1545;SDS011;766;51.502;9.752;2022-08-01T09:56:19;1.85;;;0.77;;
1545;SDS011;766;51.502;9.752;2022-08-01T09:58:58;0.60;;;0.60;;
1545;SDS011;766;51.502;9.752;2022-08-01T10:01:42;0.60;;;0.50;;
1545;SDS011;766;51.502;9.752;2022-08-01T10:04:12;3.75;;;1.23;;
1545;SDS011;766;51.502;9.752;2022-08-01T10:06:44;6.22;;;0.98;;
1545;SDS011;766;51.502;9.752;2022-08-01T10:09:26;2.45;;;0.80;;
1545;SDS011;766;51.502;9.752;2022-08-01T10:12:06;1.05;;;0.60;;
1545;SDS011;766;51.502;9.752;2022-08-01T10:14:41;1.13;;;0.50;;
1545;SDS011;766;51.502;9.752;2022-08-01T10:17:14;0.57;;;0.55;;
1545;SDS011;766;51.502;9.752;2022-08-01T10:19:45;1.58;;;0.73;;
1545;SDS011;766;51.502;9.752;2022-08-01T10:22:17;1.10;;;0.77;;
1545;SDS011;766;51.502;9.752;2022-08-01T10:24:47;1.40;;;0.70;;
1545;SDS011;766;51.502;9.752;2022-08-01T10:27:17;1.00;;;0.60;;
1545;SDS011;766;51.502;9.752;2022-08-01T10:30:04;0.60;;;0.60;;
1545;SDS011;766;51.502;9.752;2022-08-01T10:32:50;1.00;;;0.60;;
1545;SDS011;766;51.502;9.752;2022-08-01T10:35:20;3.17;;;0.40;;
1545;SDS011;766;51.502;9.752;2022-08-01T10:38:10;2.13;;;0.60;;
1545;SDS011;766;51.502;9.752;2022-08-01T10:40:39;0.50;;;0.50;;
1545;SDS011;766;51.502;9.752;2022-08-01T10:43:09;0.85;;;0.57;;
1545;SDS011;766;51.502;9.752;2022-08-01T10:45:38;0.73;;;0.50;;
1545;SDS011;766;51.502;9.752;2022-08-01T10:48:11;1.33;;;0.50;;
1545;SDS011;766;51.502;9.752;2022-08-01T10:50:47;0.65;;;0.50;;
1545;SDS011;766;51.502;9.752;2022-08-01T10:53:20;2.25;;;0.60;;
1545;SDS011;766;51.502;9.752;2022-08-01T10:56:07;0.75;;;0.60;;
1545;SDS011;766;51.502;9.752;2022-08-01T10:58:41;0.93;;;0.47;;
1545;SDS011;766;51.502;9.752;2022-08-01T11:04:02;0.55;;;0.50;;
1545;SDS011;766;51.502;9.752;2022-08-01T11:06:42;0.60;;;0.50;;
1545;SDS011;766;51.502;9.752;2022-08-01T11:09:24;1.45;;;0.50;;
1545;SDS011;766;51.502;9.752;2022-08-01T11:12:04;1.65;;;0.60;;
1545;SDS011;766;51.502;9.752;2022-08-01T11:17:40;1.00;;;0.82;;
1545;SDS011;766;51.502;9.752;2022-08-01T11:20:16;0.65;;;0.65;;
1545;SDS011;766;51.502;9.752;2022-08-01T11:29:15;0.57;;;0.50;;
1545;SDS011;766;51.502;9.752;2022-08-01T11:31:48;0.60;;;0.60;;
1545;SDS011;766;51.502;9.752;2022-08-01T11:34:16;0.68;;;0.68;;
1545;SDS011;766;51.502;9.752;2022-08-01T11:36:46;0.50;;;0.50;;
1545;SDS011;766;51.502;9.752;2022-08-01T11:39:24;0.73;;;0.68;;
1545;SDS011;766;51.502;9.752;2022-08-01T11:41:55;0.75;;;0.75;;
1545;SDS011;766;51.502;9.752;2022-08-01T11:44:48;0.60;;;0.60;;
1545;SDS011;766;51.502;9.752;2022-08-01T11:47:17;0.77;;;0.60;;
1545;SDS011;766;51.502;9.752;2022-08-01T11:50:06;0.68;;;0.60;;
1545;SDS011;766;51.502;9.752;2022-08-01T11:53:00;0.90;;;0.60;;
1545;SDS011;766;51.502;9.752;2022-08-01T11:55:30;0.70;;;0.70;;
1545;SDS011;766;51.502;9.752;2022-08-01T11:58:01;0.63;;;0.63;;
1545;SDS011;766;51.502;9.752;2022-08-01T12:00:34;0.47;;;0.47;;
1545;SDS011;766;51.502;9.752;2022-08-01T12:03:09;0.52;;;0.52;;
1545;SDS011;766;51.502;9.752;2022-08-01T12:05:58;4.50;;;0.60;;
1545;SDS011;766;51.502;9.752;2022-08-01T12:08:28;2.78;;;0.70;;
1545;SDS011;766;51.502;9.752;2022-08-01T12:10:59;1.05;;;0.55;;
1545;SDS011;766;51.502;9.752;2022-08-01T12:13:39;0.95;;;0.70;;
1545;SDS011;766;51.502;9.752;2022-08-01T12:16:10;0.70;;;0.70;;
1545;SDS011;766;51.502;9.752;2022-08-01T12:18:38;2.65;;;0.60;;
1545;SDS011;766;51.502;9.752;2022-08-01T12:21:07;0.82;;;0.82;;
1545;SDS011;766;51.502;9.752;2022-08-01T12:23:40;0.85;;;0.68;;
1545;SDS011;766;51.502;9.752;2022-08-01T12:26:11;0.80;;;0.80;;
1545;SDS011;766;51.502;9.752;2022-08-01T12:28:57;2.60;;;0.70;;
1545;SDS011;766;51.502;9.752;2022-08-01T12:31:32;2.28;;;0.70;;
1545;SDS011;766;51.502;9.752;2022-08-01T12:36:53;4.25;;;0.85;;
1545;SDS011;766;51.502;9.752;2022-08-01T12:39:30;1.88;;;0.70;;
1545;SDS011;766;51.502;9.752;2022-08-01T12:42:06;0.60;;;0.60;;
1545;SDS011;766;51.502;9.752;2022-08-01T12:44:37;0.70;;;0.63;;
1545;SDS011;766;51.502;9.752;2022-08-01T12:47:06;2.53;;;1.02;;
1545;SDS011;766;51.502;9.752;2022-08-01T12:49:35;0.70;;;0.70;;
1545;SDS011;766;51.502;9.752;2022-08-01T12:52:05;0.68;;;0.63;;
1545;SDS011;766;51.502;9.752;2022-08-01T12:57:36;1.00;;;0.70;;
1545;SDS011;766;51.502;9.752;2022-08-01T13:00:06;1.50;;;0.65;;
1545;SDS011;766;51.502;9.752;2022-08-01T13:02:37;2.92;;;1.05;;
1545;SDS011;766;51.502;9.752;2022-08-01T13:05:06;3.22;;;1.00;;
1545;SDS011;766;51.502;9.752;2022-08-01T13:07:37;2.50;;;0.80;;
1545;SDS011;766;51.502;9.752;2022-08-01T13:10:13;1.20;;;0.90;;
1545;SDS011;766;51.502;9.752;2022-08-01T13:12:52;3.58;;;1.00;;
1545;SDS011;766;51.502;9.752;2022-08-01T13:15:22;5.32;;;1.23;;
1545;SDS011;766;51.502;9.752;2022-08-01T13:17:58;1.60;;;0.93;;
1545;SDS011;766;51.502;9.752;2022-08-01T13:20:29;1.25;;;0.65;;
1545;SDS011;766;51.502;9.752;2022-08-01T13:23:12;2.97;;;1.10;;
1545;SDS011;766;51.502;9.752;2022-08-01T13:26:03;1.35;;;0.93;;
1545;SDS011;766;51.502;9.752;2022-08-01T13:28:32;1.30;;;0.75;;
1545;SDS011;766;51.502;9.752;2022-08-01T13:31:03;2.35;;;1.00;;
1545;SDS011;766;51.502;9.752;2022-08-01T13:33:39;1.58;;;1.35;;
1545;SDS011;766;51.502;9.752;2022-08-01T13:36:09;1.13;;;0.90;;
1545;SDS011;766;51.502;9.752;2022-08-01T13:38:39;0.82;;;0.80;;
1545;SDS011;766;51.502;9.752;2022-08-01T13:41:27;2.75;;;1.00;;
1545;SDS011;766;51.502;9.752;2022-08-01T13:43:55;1.75;;;1.00;;
1545;SDS011;766;51.502;9.752;2022-08-01T13:46:25;3.63;;;1.00;;
1545;SDS011;766;51.502;9.752;2022-08-01T13:48:55;0.98;;;0.90;;
1545;SDS011;766;51.502;9.752;2022-08-01T13:51:30;1.42;;;1.02;;
1545;SDS011;766;51.502;9.752;2022-08-01T13:53:58;1.02;;;0.93;;
1545;SDS011;766;51.502;9.752;2022-08-01T13:56:29;2.08;;;1.23;;
1545;SDS011;766;51.502;9.752;2022-08-01T13:59:00;2.13;;;1.10;;
1545;SDS011;766;51.502;9.752;2022-08-01T14:01:30;1.77;;;1.27;;
1545;SDS011;766;51.502;9.752;2022-08-01T14:04:00;1.13;;;1.00;;
1545;SDS011;766;51.502;9.752;2022-08-01T14:06:28;1.98;;;1.00;;
1545;SDS011;766;51.502;9.752;2022-08-01T14:08:57;0.85;;;0.82;;
1545;SDS011;766;51.502;9.752;2022-08-01T14:11:26;1.08;;;1.00;;
1545;SDS011;766;51.502;9.752;2022-08-01T14:14:02;0.95;;;0.85;;
1545;SDS011;766;51.502;9.752;2022-08-01T14:16:33;0.70;;;0.70;;
1545;SDS011;766;51.502;9.752;2022-08-01T14:19:03;0.60;;;0.60;;
1545;SDS011;766;51.502;9.752;2022-08-01T14:21:32;1.60;;;0.70;;
1545;SDS011;766;51.502;9.752;2022-08-01T14:24:00;0.73;;;0.70;;
1545;SDS011;766;51.502;9.752;2022-08-01T14:26:30;0.60;;;0.60;;
1545;SDS011;766;51.502;9.752;2022-08-01T14:29:01;1.83;;;0.50;;
1545;SDS011;766;51.502;9.752;2022-08-01T14:31:30;1.50;;;0.60;;
1545;SDS011;766;51.502;9.752;2022-08-01T14:34:00;0.50;;;0.50;;
1545;SDS011;766;51.502;9.752;2022-08-01T14:36:28;0.80;;;0.60;;
1545;SDS011;766;51.502;9.752;2022-08-01T14:39:04;0.50;;;0.50;;
1545;SDS011;766;51.502;9.752;2022-08-01T14:41:41;1.45;;;0.50;;
1545;SDS011;766;51.502;9.752;2022-08-01T14:44:12;1.45;;;0.60;;
1545;SDS011;766;51.502;9.752;2022-08-01T14:46:40;1.15;;;0.60;;
1545;SDS011;766;51.502;9.752;2022-08-01T14:49:24;0.52;;;0.52;;
1545;SDS011;766;51.502;9.752;2022-08-01T14:51:52;0.40;;;0.40;;
1545;SDS011;766;51.502;9.752;2022-08-01T14:54:20;0.60;;;0.60;;
1545;SDS011;766;51.502;9.752;2022-08-01T14:56:56;0.70;;;0.60;;
1545;SDS011;766;51.502;9.752;2022-08-01T14:59:24;0.55;;;0.55;;
1545;SDS011;766;51.502;9.752;2022-08-01T15:01:53;0.88;;;0.60;;
1545;SDS011;766;51.502;9.752;2022-08-01T15:04:21;1.00;;;0.60;;
1545;SDS011;766;51.502;9.752;2022-08-01T15:06:51;1.20;;;0.70;;
1545;SDS011;766;51.502;9.752;2022-08-01T15:09:20;0.60;;;0.60;;
1545;SDS011;766;51.502;9.752;2022-08-01T15:11:51;1.20;;;0.70;;
1545;SDS011;766;51.502;9.752;2022-08-01T15:14:20;0.85;;;0.70;;
1545;SDS011;766;51.502;9.752;2022-08-01T15:17:06;0.93;;;0.90;;
1545;SDS011;766;51.502;9.752;2022-08-01T15:19:34;1.13;;;0.85;;
1545;SDS011;766;51.502;9.752;2022-08-01T15:22:07;3.25;;;0.80;;
1545;SDS011;766;51.502;9.752;2022-08-01T15:24:36;0.82;;;0.60;;
1545;SDS011;766;51.502;9.752;2022-08-01T15:27:05;0.93;;;0.80;;
1545;SDS011;766;51.502;9.752;2022-08-01T15:29:38;1.63;;;0.85;;
1545;SDS011;766;51.502;9.752;2022-08-01T15:32:08;4.88;;;0.80;;
1545;SDS011;766;51.502;9.752;2022-08-01T15:34:37;2.67;;;0.80;;
1545;SDS011;766;51.502;9.752;2022-08-01T15:37:08;0.88;;;0.80;;
1545;SDS011;766;51.502;9.752;2022-08-01T15:39:37;1.25;;;0.70;;
1545;SDS011;766;51.502;9.752;2022-08-01T15:42:07;0.70;;;0.60;;
1545;SDS011;766;51.502;9.752;2022-08-01T15:44:38;1.23;;;0.73;;
1545;SDS011;766;51.502;9.752;2022-08-01T15:47:07;0.73;;;0.63;;
1545;SDS011;766;51.502;9.752;2022-08-01T15:49:36;0.90;;;0.90;;
1545;SDS011;766;51.502;9.752;2022-08-01T15:52:07;1.38;;;0.95;;
1545;SDS011;766;51.502;9.752;2022-08-01T15:54:48;1.25;;;1.10;;
1545;SDS011;766;51.502;9.752;2022-08-01T15:57:16;0.77;;;0.77;;
1545;SDS011;766;51.502;9.752;2022-08-01T15:59:46;1.65;;;0.77;;
1545;SDS011;766;51.502;9.752;2022-08-01T16:02:21;0.73;;;0.70;;
1545;SDS011;766;51.502;9.752;2022-08-01T16:04:49;0.85;;;0.75;;
1545;SDS011;766;51.502;9.752;2022-08-01T16:07:18;2.40;;;0.70;;
1545;SDS011;766;51.502;9.752;2022-08-01T16:09:49;0.98;;;0.73;;
1545;SDS011;766;51.502;9.752;2022-08-01T16:12:17;2.47;;;0.90;;
1545;SDS011;766;51.502;9.752;2022-08-01T16:14:47;0.77;;;0.77;;
1545;SDS011;766;51.502;9.752;2022-08-01T16:17:16;2.28;;;0.80;;
1545;SDS011;766;51.502;9.752;2022-08-01T16:19:44;2.22;;;0.85;;
1545;SDS011;766;51.502;9.752;2022-08-01T16:22:13;1.90;;;1.08;;
1545;SDS011;766;51.502;9.752;2022-08-01T16:24:41;1.58;;;1.17;;